Time;durP1;ratioP1;P1;durP2;ratioP2;P2;SDS_P1;SDS_P2;PMS_P1;PMS_P2;Temp;Humidity;BMP_temperature;BMP_pressure;BME280_temperature;BME280_humidity;BME280_pressure;Samples;Min_cycle;Max_cycle;Signal;HPM_P1;HPM_P2
2021/07/17 00:01:08;;;;;;;27.80;11.80;;;;;;;19.92;74.17;102168.81;3596242;40;20233;-81
2021/07/17 00:03:33;;;;;;;23.03;10.20;;;;;;;19.95;74.40;102166.22;3596057;40;20907;-80
2021/07/17 00:05:58;;;;;;;24.43;10.27;;;;;;;20.01;74.23;102158.44;3595804;40;20228;-80
2021/07/17 00:08:23;;;;;;;19.37;9.80;;;;;;;19.81;74.74;102171.38;3586889;40;20492;-81
2021/07/17 00:10:49;;;;;;;23.57;9.33;;;;;;;19.81;75.18;102168.75;3595586;40;20630;-79
2021/07/17 00:13:16;;;;;;;25.97;12.23;;;;;;;19.90;74.63;102173.16;3595858;40;20232;-79
2021/07/17 00:15:42;;;;;;;25.00;10.60;;;;;;;19.79;75.17;102167.03;3595599;40;20318;-80
2021/07/17 00:18:07;;;;;;;21.10;10.37;;;;;;;19.96;74.53;102173.16;3596005;40;20237;-80
2021/07/17 00:20:33;;;;;;;22.40;10.30;;;;;;;19.83;74.79;102169.66;3595530;40;20969;-80
2021/07/17 00:22:59;;;;;;;25.27;10.90;;;;;;;19.92;74.45;102171.41;3595579;40;20302;-80
2021/07/17 00:25:25;;;;;;;19.07;8.97;;;;;;;19.81;74.92;102175.72;3596817;40;20221;-81
2021/07/17 00:27:51;;;;;;;22.70;10.03;;;;;;;19.79;75.07;102174.84;3597143;40;20225;-81
2021/07/17 00:30:17;;;;;;;23.47;10.53;;;;;;;19.70;75.64;102180.88;3587348;40;20221;-80
2021/07/17 00:32:44;;;;;;;24.57;10.33;;;;;;;19.68;75.30;102177.41;3587868;40;20240;-81
2021/07/17 00:35:09;;;;;;;24.33;10.60;;;;;;;19.64;75.20;102174.78;3588444;40;20615;-81
2021/07/17 00:37:35;;;;;;;23.07;10.27;;;;;;;19.65;75.43;102182.59;3598899;40;20237;-80
2021/07/17 00:40:03;;;;;;;19.63;9.30;;;;;;;19.70;75.43;102178.28;3588601;40;20232;-78
2021/07/17 00:42:30;;;;;;;25.73;10.80;;;;;;;19.67;75.65;102175.66;3587215;40;20533;-81
2021/07/17 00:44:55;;;;;;;28.37;12.20;;;;;;;19.72;75.46;102180.88;3596317;40;20239;-81
2021/07/17 00:47:21;;;;;;;25.93;10.97;;;;;;;19.64;75.40;102175.66;3588823;40;20217;-80
2021/07/17 00:49:47;;;;;;;25.13;10.87;;;;;;;19.59;75.73;102168.69;3598132;40;20229;-81
2021/07/17 00:52:12;;;;;;;22.30;11.00;;;;;;;19.64;75.81;102172.19;3589028;40;20260;-81
2021/07/17 00:54:39;;;;;;;24.20;11.13;;;;;;;19.69;75.64;102179.16;3588797;40;20256;-81
2021/07/17 00:57:05;;;;;;;23.70;10.40;;;;;;;19.64;75.80;102177.38;3597981;40;20229;-80
2021/07/17 00:59:34;;;;;;;23.10;11.00;;;;;;;19.72;75.21;102171.34;3598679;40;20232;-81
2021/07/17 01:02:01;;;;;;;22.97;10.17;;;;;;;19.62;75.65;102169.56;3589756;40;20835;-80
2021/07/17 01:04:27;;;;;;;30.13;11.67;;;;;;;19.68;75.47;102166.13;3599216;40;20241;-80
2021/07/17 01:06:53;;;;;;;17.83;8.90;;;;;;;19.61;75.79;102172.16;3595517;40;20322;-80
2021/07/17 01:09:18;;;;;;;22.30;10.27;;;;;;;19.65;75.75;102180.00;3597110;40;20237;-79
2021/07/17 01:11:43;;;;;;;25.77;9.83;;;;;;;19.62;75.72;102187.78;3597191;40;20217;-80
2021/07/17 01:14:09;;;;;;;17.67;8.40;;;;;;;19.55;76.07;102179.94;3597052;40;20248;-80
2021/07/17 01:16:35;;;;;;;24.73;10.07;;;;;;;19.63;75.90;102178.25;3597688;40;20221;-79
2021/07/17 01:19:02;;;;;;;25.00;9.60;;;;;;;19.59;75.91;102169.59;3597262;40;20221;-80
2021/07/17 01:21:28;;;;;;;22.33;10.17;;;;;;;19.59;76.31;102179.97;3597156;40;20287;-81
2021/07/17 01:23:53;;;;;;;19.23;8.63;;;;;;;19.58;76.31;102175.63;3597255;40;20241;-80
2021/07/17 01:26:18;;;;;;;22.90;9.63;;;;;;;19.65;75.91;102180.00;3588291;40;20278;-80
2021/07/17 01:28:44;;;;;;;17.80;8.67;;;;;;;19.51;75.95;102171.28;3588171;40;20255;-81
2021/07/17 01:31:09;;;;;;;16.07;8.13;;;;;;;19.51;76.13;102178.19;3597349;40;20217;-80
2021/07/17 01:33:35;;;;;;;18.03;8.97;;;;;;;19.59;76.30;102177.38;3596208;40;20237;-81
2021/07/17 01:36:02;;;;;;;19.87;8.83;;;;;;;19.51;76.36;102178.19;3596613;40;20256;-81
2021/07/17 01:38:27;;;;;;;23.00;9.73;;;;;;;19.44;76.53;102181.63;3596850;40;20221;-82
2021/07/17 01:40:53;;;;;;;27.47;11.37;;;;;;;19.58;76.06;102186.00;3596799;40;20303;-81
2021/07/17 01:43:18;;;;;;;20.33;9.80;;;;;;;19.51;76.38;102181.66;3588889;40;20707;-81
2021/07/17 01:45:45;;;;;;;19.70;9.37;;;;;;;19.48;76.28;102180.78;3598312;40;20614;-81
2021/07/17 01:48:12;;;;;;;19.10;8.50;;;;;;;19.41;76.77;102176.41;3597971;40;20860;-80
2021/07/17 01:50:38;;;;;;;24.33;10.47;;;;;;;19.46;76.32;102185.97;3597197;40;20229;-82
2021/07/17 01:53:06;;;;;;;22.00;10.30;;;;;;;19.58;76.38;102185.16;3597723;40;20272;-82
2021/07/17 01:55:31;;;;;;;23.30;10.07;;;;;;;19.49;76.10;102178.19;3596914;40;20241;-81
2021/07/17 01:57:58;;;;;;;20.20;9.07;;;;;;;19.37;76.43;102185.06;3587730;40;20263;-82
2021/07/17 02:00:24;;;;;;;31.23;12.27;;;;;;;19.37;76.45;102178.13;3596848;40;20233;-85
2021/07/17 02:02:50;;;;;;;24.40;9.60;;;;;;;19.45;76.78;102176.44;3597944;40;20229;-82
2021/07/17 02:05:16;;;;;;;26.57;11.23;;;;;;;19.51;76.38;102173.00;3598588;40;20247;-82
2021/07/17 02:07:45;;;;;;;20.40;10.87;;;;;;;19.41;76.11;102179.00;3598624;40;20217;-81
2021/07/17 02:10:20;;;;;;;21.70;10.60;;;;;;;19.30;76.65;102171.16;3598767;40;20224;-83
2021/07/17 02:13:00;;;;;;;26.17;12.27;;;;;;;19.45;76.43;102171.25;3598528;40;20243;-82
2021/07/17 02:15:26;;;;;;;19.73;10.63;;;;;;;19.27;77.11;102165.97;3598844;40;20225;-82
2021/07/17 02:17:53;;;;;;;21.30;11.43;;;;;;;19.25;76.88;102170.28;3598737;40;20233;-82
2021/07/17 02:20:18;;;;;;;21.23;10.80;;;;;;;19.31;76.74;102167.72;3598315;40;20631;-81
2021/07/17 02:22:44;;;;;;;21.60;10.23;;;;;;;19.27;76.75;102167.69;3598592;40;20261;-81
2021/07/17 02:25:09;;;;;;;23.00;12.47;;;;;;;19.22;77.04;102161.56;3599090;40;20221;-82
2021/07/17 02:27:35;;;;;;;19.80;10.07;;;;;;;19.18;77.36;102160.69;3599845;40;20232;-82
2021/07/17 02:30:00;;;;;;;19.40;9.47;;;;;;;19.14;77.50;102160.66;3589301;40;20225;-82
2021/07/17 02:32:25;;;;;;;25.40;10.27;;;;;;;19.18;77.16;102159.81;3597584;40;20252;-81
2021/07/17 02:34:51;;;;;;;26.63;11.87;;;;;;;19.09;77.21;102159.75;3587188;40;20237;-82
2021/07/17 02:37:17;;;;;;;18.73;9.30;;;;;;;19.09;77.25;102158.03;3596571;40;20290;-82
2021/07/17 02:39:43;;;;;;;22.93;10.10;;;;;;;19.17;77.52;102164.13;3596622;40;20720;-81
2021/07/17 02:42:08;;;;;;;27.83;11.70;;;;;;;19.08;77.42;102165.81;3588105;40;20256;-81
2021/07/17 02:44:34;;;;;;;17.80;10.13;;;;;;;19.02;77.38;102176.19;3589167;40;20236;-81
2021/07/17 02:46:59;;;;;;;18.13;8.57;;;;;;;18.97;77.72;102170.94;3588783;40;20224;-81
2021/07/17 02:49:24;;;;;;;16.27;8.77;;;;;;;18.98;77.60;102172.66;3598865;40;20239;-82
2021/07/17 02:51:49;;;;;;;16.07;7.97;;;;;;;18.94;77.76;102170.06;3597617;40;20308;-81
2021/07/17 02:54:16;;;;;;;21.60;9.20;;;;;;;18.98;78.20;102180.44;3597922;40;20216;-80
2021/07/17 02:56:41;;;;;;;16.87;8.53;;;;;;;18.99;77.37;102173.53;3598497;40;20224;-80
2021/07/17 02:59:07;;;;;;;20.50;9.43;;;;;;;18.98;77.75;102166.63;3589869;40;20291;-82
2021/07/17 03:01:32;;;;;;;17.97;9.53;;;;;;;18.99;77.92;102170.94;3589471;40;20233;-81
2021/07/17 03:03:58;;;;;;;23.97;10.93;;;;;;;18.95;77.80;102164.00;3598943;40;20229;-81
2021/07/17 03:06:23;;;;;;;14.07;8.17;;;;;;;18.92;77.88;102169.16;3598670;40;20236;-82
2021/07/17 03:08:48;;;;;;;18.43;9.97;;;;;;;18.91;77.75;102168.31;3598757;40;20229;-81
2021/07/17 03:11:13;;;;;;;16.53;9.03;;;;;;;18.89;77.69;102171.75;3600074;40;20253;-81
2021/07/17 03:13:39;;;;;;;23.27;10.77;;;;;;;18.86;77.93;102172.59;3599935;40;20249;-81
2021/07/17 03:16:05;;;;;;;17.20;8.10;;;;;;;18.88;77.86;102173.47;3600049;40;20688;-82
2021/07/17 03:18:30;;;;;;;15.33;7.03;;;;;;;18.87;77.90;102176.03;3599686;40;20221;-82
2021/07/17 03:20:55;;;;;;;16.47;8.57;;;;;;;18.83;78.30;102175.16;3590115;40;20232;-81
2021/07/17 03:23:20;;;;;;;13.20;7.33;;;;;;;18.83;78.17;102171.72;3599406;40;20295;-81
2021/07/17 03:25:46;;;;;;;16.10;8.83;;;;;;;18.82;78.33;102165.66;3599680;40;20241;-81
2021/07/17 03:28:11;;;;;;;14.43;8.77;;;;;;;18.85;78.50;102160.50;3590949;40;20244;-82
2021/07/17 03:30:36;;;;;;;24.87;11.20;;;;;;;18.85;78.18;102162.19;3598835;40;20228;-81
2021/07/17 03:33:02;;;;;;;14.63;7.60;;;;;;;18.91;77.87;102160.53;3598524;40;20247;-81
2021/07/17 03:35:27;;;;;;;15.67;8.10;;;;;;;18.91;77.83;102167.44;3590383;40;20249;-81
2021/07/17 03:37:53;;;;;;;20.53;10.53;;;;;;;18.95;78.03;102166.59;3590264;40;20225;-80
2021/07/17 03:40:18;;;;;;;15.77;7.63;;;;;;;18.94;77.93;102170.06;3598171;40;20240;-81
2021/07/17 03:42:43;;;;;;;17.77;9.50;;;;;;;18.91;78.05;102168.31;3598120;40;20248;-81
2021/07/17 03:45:09;;;;;;;14.27;7.67;;;;;;;18.88;78.46;102170.88;3597371;40;20232;-81
2021/07/17 03:47:35;;;;;;;17.03;9.27;;;;;;;18.90;78.32;102174.38;3597339;40;20303;-81
2021/07/17 03:50:00;;;;;;;15.50;8.20;;;;;;;18.94;78.16;102170.06;3588579;40;20224;-81
2021/07/17 03:52:25;;;;;;;13.23;6.73;;;;;;;18.93;78.19;102166.56;3598346;40;20284;-81
2021/07/17 03:54:51;;;;;;;19.23;9.13;;;;;;;19.00;78.05;102162.28;3589826;40;20245;-82
2021/07/17 03:57:16;;;;;;;21.33;9.50;;;;;;;19.02;78.11;102156.25;3598358;40;20221;-82
2021/07/17 03:59:41;;;;;;;21.20;9.50;;;;;;;19.03;78.04;102170.97;3598459;40;20283;-81
2021/07/17 04:02:06;;;;;;;13.90;8.13;;;;;;;19.03;78.05;102167.53;3594103;40;20631;-80
2021/07/17 04:04:38;;;;;;;17.47;9.77;;;;;;;19.05;78.14;102163.19;3588154;40;20242;-81
2021/07/17 04:07:03;;;;;;;14.33;8.37;;;;;;;19.09;78.27;102171.03;3586547;40;20229;-82
2021/07/17 04:09:29;;;;;;;14.10;7.10;;;;;;;19.12;78.03;102162.38;3587755;40;20272;-80
2021/07/17 04:11:54;;;;;;;15.43;9.03;;;;;;;19.17;78.25;102165.88;3587764;40;20255;-81
2021/07/17 04:14:19;;;;;;;13.87;8.90;;;;;;;19.19;77.99;102169.34;3587511;40;20222;-82
2021/07/17 04:16:44;;;;;;;13.03;8.77;;;;;;;19.20;78.26;102171.09;3588255;40;20218;-81
2021/07/17 04:19:10;;;;;;;14.80;9.40;;;;;;;19.24;78.16;102167.66;3578555;40;20593;-82
2021/07/17 04:21:35;;;;;;;15.03;7.87;;;;;;;19.34;77.98;102172.06;3587226;40;20229;-81
2021/07/17 04:24:00;;;;;;;15.30;9.77;;;;;;;19.36;78.05;102176.41;3587359;40;20237;-81
2021/07/17 04:26:26;;;;;;;16.77;9.03;;;;;;;19.39;78.02;102178.16;3587495;40;20233;-81
2021/07/17 04:28:51;;;;;;;15.57;9.10;;;;;;;19.42;78.02;102184.22;3587751;40;20237;-81
2021/07/17 04:31:16;;;;;;;14.33;7.97;;;;;;;19.46;78.01;102188.56;3587481;40;20229;-82
2021/07/17 04:33:42;;;;;;;16.07;8.97;;;;;;;19.50;77.76;102181.66;3587515;40;20300;-82
2021/07/17 04:36:09;;;;;;;11.90;7.20;;;;;;;19.51;77.70;102179.06;3587183;40;20290;-81
2021/07/17 04:38:34;;;;;;;14.50;8.60;;;;;;;19.74;76.75;102182.63;3591589;40;20237;-80
2021/07/17 04:40:59;;;;;;;15.63;8.27;;;;;;;19.85;76.56;102185.28;3596838;40;20237;-81
2021/07/17 04:43:25;;;;;;;12.83;8.13;;;;;;;19.85;76.47;102187.88;3590247;40;20249;-80
2021/07/17 04:45:50;;;;;;;13.27;8.57;;;;;;;19.86;77.09;102184.41;3577893;40;20210;-80
2021/07/17 04:48:15;;;;;;;10.63;6.87;;;;;;;19.84;76.92;102187.00;3587189;40;20229;-80
2021/07/17 04:50:41;;;;;;;17.07;8.40;;;;;;;20.16;75.69;102193.19;3586837;40;20229;-81
2021/07/17 04:53:06;;;;;;;15.47;8.73;;;;;;;20.06;75.83;102199.19;3587104;40;20262;-81
2021/07/17 04:55:32;;;;;;;12.83;7.43;;;;;;;20.03;75.88;102190.53;3593349;40;20217;-79
2021/07/17 04:57:57;;;;;;;15.97;9.20;;;;;;;20.10;75.41;102193.19;3587123;40;20241;-80
2021/07/17 05:00:23;;;;;;;12.53;9.90;;;;;;;20.14;75.39;102184.53;3596552;40;20537;-80
2021/07/17 05:02:50;;;;;;;14.27;8.73;;;;;;;20.21;75.17;102190.56;3586941;40;20248;-79
2021/07/17 05:05:17;;;;;;;10.23;8.00;;;;;;;20.44;73.61;102194.06;3594813;40;20218;-81
2021/07/17 05:07:43;;;;;;;13.03;8.73;;;;;;;20.21;74.59;102190.56;3596037;40;20229;-80
2021/07/17 05:10:11;;;;;;;9.03;6.47;;;;;;;20.15;74.58;102190.56;3595649;40;20553;-80
2021/07/17 05:12:36;;;;;;;10.83;7.50;;;;;;;20.28;74.03;102184.53;3593812;40;20245;-79
2021/07/17 05:15:02;;;;;;;10.00;6.73;;;;;;;20.38;73.66;102192.34;3574976;40;20253;-82
2021/07/17 05:17:27;;;;;;;9.63;7.10;;;;;;;20.60;72.48;102182.81;3586285;40;20225;-81
2021/07/17 05:19:52;;;;;;;12.50;6.70;;;;;;;20.82;69.78;102193.22;3585357;40;20222;-80
2021/07/17 05:22:17;;;;;;;11.87;6.70;;;;;;;20.59;71.03;102191.50;3586650;40;20237;-81
2021/07/17 05:24:43;;;;;;;8.37;6.10;;;;;;;20.58;71.51;102190.63;3586222;40;20224;-80
2021/07/17 05:27:09;;;;;;;9.87;6.20;;;;;;;20.77;70.39;102200.16;3576683;40;20214;-81
2021/07/17 05:29:34;;;;;;;11.50;5.67;;;;;;;20.80;69.20;102194.97;3584340;40;20223;-78
2021/07/17 05:31:59;;;;;;;10.30;5.67;;;;;;;20.64;70.24;102190.59;3577379;40;20243;-79
2021/07/17 05:34:24;;;;;;;6.00;5.00;;;;;;;20.69;69.11;102196.69;3581335;40;20483;-79
2021/07/17 05:36:50;;;;;;;8.37;4.60;;;;;;;20.70;69.95;102198.44;3588678;40;20232;-82
2021/07/17 05:39:15;;;;;;;7.53;5.20;;;;;;;20.78;69.12;102193.22;3575888;40;20831;-80
2021/07/17 05:41:40;;;;;;;8.23;5.37;;;;;;;20.86;68.47;102199.31;3577235;40;20257;-79
2021/07/17 05:44:05;;;;;;;6.57;4.77;;;;;;;20.86;68.34;102194.09;3574694;40;20248;-80
2021/07/17 05:46:31;;;;;;;7.40;4.80;;;;;;;20.92;67.74;102205.38;3569975;40;20266;-79
2021/07/17 05:48:56;;;;;;;5.50;4.47;;;;;;;21.03;67.42;102202.78;3581374;40;20237;-80
2021/07/17 05:51:23;;;;;;;6.13;4.23;;;;;;;21.36;65.04;102207.91;3576600;40;20589;-79
2021/07/17 05:53:48;;;;;;;5.67;3.93;;;;;;;21.18;65.25;102202.72;3576078;40;20607;-81
2021/07/17 05:56:14;;;;;;;8.30;4.37;;;;;;;21.16;65.41;102212.31;3575162;40;20349;-79
2021/07/17 05:58:39;;;;;;;5.87;3.33;;;;;;;21.23;65.35;102214.88;3582148;40;20847;-80
2021/07/17 06:01:04;;;;;;;5.37;3.30;;;;;;;21.33;64.13;102214.00;3580063;40;20234;-81
2021/07/17 06:03:30;;;;;;;4.50;3.43;;;;;;;21.34;63.96;102218.38;3575022;40;20245;-79
2021/07/17 06:05:55;;;;;;;5.60;3.17;;;;;;;21.48;62.54;102220.91;3575477;40;20237;-80
2021/07/17 06:08:20;;;;;;;7.00;3.50;;;;;;;21.67;60.58;102222.59;3583300;40;20252;-81
2021/07/17 06:10:46;;;;;;;4.27;2.90;;;;;;;21.66;60.80;102232.13;3585881;40;20256;-82
2021/07/17 06:13:11;;;;;;;4.67;2.97;;;;;;;21.76;60.62;102225.19;3586228;40;20226;-81
2021/07/17 06:15:36;;;;;;;7.57;3.10;;;;;;;21.77;60.00;102227.78;3578602;40;20332;-80
2021/07/17 06:18:02;;;;;;;5.73;2.70;;;;;;;21.71;59.88;102233.06;3568208;40;20793;-80
2021/07/17 06:20:27;;;;;;;4.17;2.40;;;;;;;21.70;59.78;102226.06;3587378;40;20687;-81
2021/07/17 06:22:53;;;;;;;5.37;2.73;;;;;;;21.73;59.79;102226.06;3586001;40;20328;-81
2021/07/17 06:25:20;;;;;;;4.68;2.67;;;;;;;21.81;60.56;102231.25;3586746;40;20237;-81
2021/07/17 06:27:46;;;;;;;4.17;2.73;;;;;;;22.01;59.10;102224.19;3586110;40;20236;-81
2021/07/17 06:30:12;;;;;;;4.00;2.80;;;;;;;22.13;57.83;102219.78;3586046;40;20256;-79
2021/07/17 06:32:37;;;;;;;3.80;2.47;;;;;;;22.04;58.57;102226.78;3586197;40;20250;-81
2021/07/17 06:35:03;;;;;;;8.07;2.83;;;;;;;22.20;57.56;102229.31;3585482;40;20229;-81
2021/07/17 06:37:28;;;;;;;4.20;2.72;;;;;;;22.33;56.58;102230.09;3585801;40;20296;-81
2021/07/17 06:39:53;;;;;;;3.57;2.50;;;;;;;22.29;56.07;102231.84;3586211;40;20217;-81
2021/07/17 06:42:18;;;;;;;4.97;2.57;;;;;;;22.37;56.78;102237.03;3580414;40;20530;-80
2021/07/17 06:44:44;;;;;;;3.53;2.43;;;;;;;22.38;56.39;102228.31;3586443;40;20280;-82
2021/07/17 06:47:09;;;;;;;4.53;2.77;;;;;;;22.38;56.88;102233.53;3586428;40;20245;-81
2021/07/17 06:49:35;;;;;;;3.00;2.23;;;;;;;22.52;57.22;102234.38;3586859;40;20233;-82
2021/07/17 06:52:00;;;;;;;5.13;3.27;;;;;;;22.60;58.06;102231.69;3587410;40;20238;-81
2021/07/17 06:54:25;;;;;;;6.47;3.13;;;;;;;22.90;57.33;102229.69;3587121;40;20222;-81
2021/07/17 06:56:51;;;;;;;4.72;2.85;;;;;;;23.17;54.15;102232.06;3585795;40;20230;-81
2021/07/17 06:59:16;;;;;;;6.07;3.47;;;;;;;23.24;54.66;102231.13;3587251;40;20264;-81
2021/07/17 07:01:41;;;;;;;4.68;2.92;;;;;;;23.35;55.15;102228.41;3587090;40;20648;-81
2021/07/17 07:04:06;;;;;;;4.65;3.05;;;;;;;23.38;55.37;102225.78;3587731;40;20256;-81
2021/07/17 07:06:32;;;;;;;6.57;3.03;;;;;;;23.30;55.55;102236.28;3587592;40;20580;-82
2021/07/17 07:08:57;;;;;;;5.60;2.90;;;;;;;23.18;55.38;102233.78;3582858;40;20223;-82
2021/07/17 07:11:22;;;;;;;7.10;3.13;;;;;;;23.31;54.93;102238.03;3587388;40;20218;-81
2021/07/17 07:13:48;;;;;;;5.93;3.05;;;;;;;23.40;54.35;102239.69;3586545;40;20234;-81
2021/07/17 07:16:14;;;;;;;7.30;3.55;;;;;;;23.27;55.77;102244.19;3587499;40;20233;-80
2021/07/17 07:18:39;;;;;;;6.68;3.15;;;;;;;23.22;55.29;102234.63;3587652;40;20220;-81
2021/07/17 07:21:04;;;;;;;4.32;2.30;;;;;;;23.20;55.03;102241.66;3586817;40;20241;-81
2021/07/17 07:23:29;;;;;;;4.45;2.40;;;;;;;23.32;55.66;102252.84;3586414;40;20252;-81
2021/07/17 07:25:55;;;;;;;7.38;2.72;;;;;;;23.39;55.05;102248.41;3586166;40;20269;-80
2021/07/17 07:28:20;;;;;;;7.25;2.80;;;;;;;23.53;54.86;102252.59;3587023;40;20241;-81
2021/07/17 07:30:45;;;;;;;4.97;2.70;;;;;;;23.52;53.51;102247.41;3586298;40;20229;-81
2021/07/17 07:33:11;;;;;;;5.13;2.58;;;;;;;23.55;53.68;102244.72;3586198;40;20246;-86
2021/07/17 07:35:36;;;;;;;6.97;2.75;;;;;;;23.67;54.37;102248.06;3587506;40;20249;-81
2021/07/17 07:38:01;;;;;;;5.97;2.88;;;;;;;23.71;54.01;102244.53;3587051;40;20248;-82
2021/07/17 07:40:29;;;;;;;6.90;2.83;;;;;;;23.84;54.22;102246.13;3587299;40;20226;-82
2021/07/17 07:42:54;;;;;;;6.68;2.90;;;;;;;23.95;52.84;102251.25;3587265;40;20253;-82
2021/07/17 07:45:20;;;;;;;6.18;2.80;;;;;;;23.84;53.65;102242.66;3587741;40;20218;-87
2021/07/17 07:47:45;;;;;;;7.82;2.60;;;;;;;23.86;53.57;102238.25;3587553;40;20229;-81
2021/07/17 07:50:11;;;;;;;6.22;2.55;;;;;;;24.03;53.60;102242.41;3573048;40;20296;-80
2021/07/17 07:52:37;;;;;;;5.20;2.35;;;;;;;24.22;52.40;102241.28;3583480;40;20277;-82
2021/07/17 07:55:04;;;;;;;7.13;2.58;;;;;;;24.27;51.07;102249.94;3584644;40;20244;-82
2021/07/17 07:57:29;;;;;;;5.72;3.00;;;;;;;24.25;51.11;102249.09;3586424;40;20230;-82
2021/07/17 07:59:55;;;;;;;6.68;2.85;;;;;;;24.18;51.81;102244.81;3584697;40;20623;-83
2021/07/17 08:02:20;;;;;;;6.35;2.38;;;;;;;24.25;51.64;102246.47;3586023;40;20244;-81
2021/07/17 08:04:45;;;;;;;7.45;2.70;;;;;;;24.38;51.08;102242.81;3586806;40;20640;-82
2021/07/17 08:07:11;;;;;;;6.15;2.70;;;;;;;24.25;51.84;102250.84;3585701;40;20233;-81
2021/07/17 08:09:36;;;;;;;6.53;2.45;;;;;;;24.37;51.58;102256.78;3586673;40;20222;-82
2021/07/17 08:12:01;;;;;;;4.63;2.15;;;;;;;24.57;50.90;102244.25;3586479;40;20741;-82
2021/07/17 08:14:27;;;;;;;6.03;2.58;;;;;;;24.78;49.97;102241.31;3585492;40;20221;-81
2021/07/17 08:16:52;;;;;;;4.97;2.50;;;;;;;24.86;50.08;102249.06;3586408;40;20650;-82
2021/07/17 08:19:17;;;;;;;6.50;2.88;;;;;;;24.97;48.75;102248.00;3587159;40;20719;-82
2021/07/17 08:21:43;;;;;;;5.63;2.65;;;;;;;25.00;49.40;102249.69;3587741;40;20650;-82
2021/07/17 08:24:08;;;;;;;5.97;2.63;;;;;;;25.12;49.21;102245.09;3587640;40;20258;-81
2021/07/17 08:26:34;;;;;;;4.30;1.90;;;;;;;25.14;50.30;102243.28;3587507;40;20222;-82
2021/07/17 08:28:59;;;;;;;6.65;2.50;;;;;;;25.30;48.94;102239.53;3587530;40;20234;-82
2021/07/17 08:31:25;;;;;;;5.35;2.75;;;;;;;25.32;49.11;102239.53;3587851;40;20281;-82
2021/07/17 08:33:50;;;;;;;6.35;2.70;;;;;;;25.35;48.60;102237.69;3587917;40;20257;-82
2021/07/17 08:36:17;;;;;;;8.48;3.50;;;;;;;25.13;49.83;102230.19;3587761;40;20234;-82
2021/07/17 08:38:44;;;;;;;7.28;2.85;;;;;;;25.10;51.39;102238.16;3587882;40;20216;-83
2021/07/17 08:41:12;;;;;;;10.02;2.38;;;;;;;25.49;49.37;102233.06;3587694;40;20233;-83
2021/07/17 08:43:39;;;;;;;6.38;2.67;;;;;;;25.42;48.91;102236.66;3587891;40;20313;-82
2021/07/17 08:46:05;;;;;;;5.60;2.38;;;;;;;25.62;47.46;102229.28;3587425;40;20258;-83
2021/07/17 08:48:32;;;;;;;6.60;2.60;;;;;;;25.66;48.08;102237.97;3587358;40;20225;-82
2021/07/17 08:50:59;;;;;;;11.85;3.20;;;;;;;25.66;48.35;102230.09;3587048;40;20253;-83
2021/07/17 08:53:26;;;;;;;9.43;2.65;;;;;;;25.79;47.30;102237.66;3586947;40;20234;-81
2021/07/17 08:55:53;;;;;;;6.40;2.42;;;;;;;25.73;48.58;102243.03;3587722;40;20238;-82
2021/07/17 08:58:18;;;;;;;6.00;2.60;;;;;;;25.79;47.83;102242.91;3587068;40;20862;-82
2021/07/17 09:00:44;;;;;;;5.57;2.70;;;;;;;25.89;48.13;102240.97;3587023;40;20233;-82
2021/07/17 09:03:16;;;;;;;7.75;2.60;;;;;;;25.91;47.70;102244.41;3587245;40;20750;-82
2021/07/17 09:05:42;;;;;;;9.07;3.05;;;;;;;25.71;47.98;102233.47;3578929;40;20233;-82
2021/07/17 09:08:09;;;;;;;7.93;2.67;;;;;;;25.86;46.88;102241.91;3584298;40;20233;-82
2021/07/17 09:10:41;;;;;;;6.00;2.47;;;;;;;26.01;47.57;102246.84;3580846;40;20226;-81
2021/07/17 09:13:16;;;;;;;7.00;2.78;;;;;;;25.89;48.77;102248.84;3577512;40;20242;-83
2021/07/17 09:15:47;;;;;;;5.47;2.03;;;;;;;26.02;48.63;102248.56;3578220;40;20230;-82
2021/07/17 09:18:12;;;;;;;7.80;2.55;;;;;;;26.15;46.87;102252.66;3577911;40;20241;-82
2021/07/17 09:20:38;;;;;;;5.45;2.47;;;;;;;26.05;48.36;102248.53;3577700;40;20226;-82
2021/07/17 09:23:06;;;;;;;7.55;2.50;;;;;;;26.30;47.02;102246.22;3576632;40;20246;-82
2021/07/17 09:25:40;;;;;;;7.50;2.72;;;;;;;26.41;46.41;102234.56;3576958;40;20226;-83
2021/07/17 09:28:24;;;;;;;7.55;2.75;;;;;;;26.46;46.26;102237.94;3577082;40;20235;-81
2021/07/17 09:30:50;;;;;;;6.63;2.83;;;;;;;26.49;45.82;102230.00;3576972;40;20242;-81
2021/07/17 09:33:17;;;;;;;5.53;2.90;;;;;;;26.42;46.16;102224.91;3577025;40;20257;-81
2021/07/17 09:35:47;;;;;;;7.10;2.92;;;;;;;26.57;46.26;102228.06;3574222;40;20283;-82
2021/07/17 09:38:13;;;;;;;6.18;2.60;;;;;;;26.57;45.24;102235.09;3567382;40;20340;-81
2021/07/17 09:40:45;;;;;;;7.55;2.70;;;;;;;26.36;46.35;102233.81;3567181;40;20238;-82
2021/07/17 09:43:11;;;;;;;4.57;2.50;;;;;;;26.34;46.68;102232.97;3577056;40;20270;-82
2021/07/17 09:45:40;;;;;;;11.32;2.72;;;;;;;26.19;47.07;102235.94;3576932;40;20276;-81
2021/07/17 09:48:35;;;;;;;4.78;2.60;;;;;;;26.26;48.62;102232.28;3573197;40;20211;-83
2021/07/17 09:51:00;;;;;;;5.88;2.55;;;;;;;26.35;47.93;102229.47;3566975;40;20223;-82
2021/07/17 09:53:41;;;;;;;5.80;2.58;;;;;;;26.61;48.19;102234.13;3567367;40;20279;-82
2021/07/17 09:56:10;;;;;;;4.90;2.30;;;;;;;26.72;46.29;102222.44;3558059;40;20227;-82
2021/07/17 09:58:38;;;;;;;6.47;2.97;;;;;;;26.65;47.71;102225.22;3567201;40;20226;-80
2021/07/17 10:01:23;;;;;;;5.85;2.83;;;;;;;26.95;46.11;102225.34;3566167;40;20492;-81
2021/07/17 10:03:56;;;;;;;5.13;2.60;;;;;;;26.85;45.87;102223.00;3566722;40;20271;-81
2021/07/17 10:06:32;;;;;;;6.40;2.70;;;;;;;26.81;46.46;102222.22;3558961;40;20637;-82
2021/07/17 10:09:04;;;;;;;4.95;2.33;;;;;;;26.71;46.77;102217.22;3576727;40;20664;-82
2021/07/17 10:11:30;;;;;;;7.35;2.67;;;;;;;26.84;46.33;102211.59;3567221;40;20235;-81
2021/07/17 10:13:56;;;;;;;9.52;2.80;;;;;;;27.12;45.32;102219.66;3578300;40;20248;-81
2021/07/17 10:16:27;;;;;;;4.63;2.50;;;;;;;26.92;45.28;102220.16;3577815;40;20254;-82
2021/07/17 10:18:54;;;;;;;4.85;2.10;;;;;;;27.06;43.82;102222.41;3576079;40;20230;-81
2021/07/17 10:21:21;;;;;;;4.88;1.98;;;;;;;26.93;45.02;102219.25;3582077;40;20274;-84
2021/07/17 10:23:47;;;;;;;4.75;2.08;;;;;;;26.86;45.67;102216.81;3584336;40;20323;-82
2021/07/17 10:26:12;;;;;;;4.55;2.30;;;;;;;27.39;43.57;102221.53;3576882;40;20262;-80
2021/07/17 10:28:38;;;;;;;4.97;2.20;;;;;;;27.38;43.14;102215.44;3584232;40;20220;-80
2021/07/17 10:31:05;;;;;;;4.80;2.35;;;;;;;27.18;44.69;102220.38;3584210;40;20238;-81
2021/07/17 10:33:32;;;;;;;5.47;2.70;;;;;;;27.32;43.82;102212.97;3559715;40;20235;-81
2021/07/17 10:36:10;;;;;;;5.70;2.10;;;;;;;27.33;44.20;102216.44;3570409;40;20250;-81
2021/07/17 10:38:39;;;;;;;3.92;2.00;;;;;;;27.20;45.86;102207.16;3583378;40;20230;-80
2021/07/17 10:41:05;;;;;;;3.58;1.95;;;;;;;27.41;44.83;102199.56;3584142;40;20232;-81
2021/07/17 10:43:31;;;;;;;5.72;2.22;;;;;;;27.66;43.49;102202.31;3584186;40;20731;-80
2021/07/17 10:45:56;;;;;;;6.63;2.45;;;;;;;27.68;42.30;102214.53;3584374;40;20217;-80
2021/07/17 10:48:30;;;;;;;4.95;2.15;;;;;;;27.72;43.02;102205.66;3583600;40;20601;-80
2021/07/17 10:50:57;;;;;;;5.20;2.35;;;;;;;27.65;44.28;102205.88;3583231;40;20257;-80
2021/07/17 10:53:46;;;;;;;4.93;1.70;;;;;;;27.97;41.75;102200.53;3583879;40;20252;-81
2021/07/17 10:56:26;;;;;;;5.72;2.05;;;;;;;28.09;41.78;102194.91;3574137;40;20586;-81
2021/07/17 10:58:52;;;;;;;4.32;1.92;;;;;;;28.01;42.42;102184.59;3573659;40;20232;-81
2021/07/17 11:01:18;;;;;;;5.70;1.90;;;;;;;28.16;42.57;102199.94;3574151;40;20234;-81
2021/07/17 11:03:44;;;;;;;3.72;2.15;;;;;;;28.27;40.80;102202.25;3583573;40;20808;-81
2021/07/17 11:06:24;;;;;;;5.07;2.03;;;;;;;28.30;42.10;102202.13;3581557;40;20230;-80
2021/07/17 11:08:50;;;;;;;4.32;1.73;;;;;;;28.55;40.00;102208.38;3577588;40;20290;-80
2021/07/17 11:11:28;;;;;;;5.68;1.77;;;;;;;28.58;39.55;102201.22;3581144;40;20593;-82
2021/07/17 11:13:54;;;;;;;4.40;1.70;;;;;;;28.45;40.91;102197.25;3583944;40;20339;-81
2021/07/17 11:16:43;;;;;;;5.65;1.83;;;;;;;28.64;40.32;102205.44;3584234;40;20241;-81